Time;durP1;ratioP1;P1;durP2;ratioP2;P2;SDS_P1;SDS_P2;PMS_P1;PMS_P2;Temp;Humidity;BMP_temperature;BMP_pressure;BME280_temperature;BME280_humidity;BME280_pressure;Samples;Min_cycle;Max_cycle;Signal;HPM_P1;HPM_P2
2022/04/30 00:00:37;;;;;;;;;31.00;30.75;;;;;;;;5022974;28;51447;-58
2022/04/30 00:03:02;;;;;;;;;32.75;30.50;;;;;;;;5005632;28;52786;-58
2022/04/30 00:05:32;;;;;;;;;31.75;29.75;;;;;;;;5023517;28;51755;-57
2022/04/30 00:07:58;;;;;;;;;30.25;25.75;;;;;;;;5024509;28;51077;-59
2022/04/30 00:10:24;;;;;;;;;35.50;31.25;;;;;;;;5025525;28;51025;-58
2022/04/30 00:12:49;;;;;;;;;32.00;30.75;;;;;;;;5023677;28;51943;-58
2022/04/30 00:15:14;;;;;;;;;31.00;28.25;;;;;;;;5023379;28;51721;-57
2022/04/30 00:17:40;;;;;;;;;32.25;28.50;;;;;;;;5003407;28;51216;-57
2022/04/30 00:20:06;;;;;;;;;35.50;32.50;;;;;;;;5023374;28;51346;-58
2022/04/30 00:22:31;;;;;;;;;34.75;32.50;;;;;;;;5021602;28;52259;-58
2022/04/30 00:24:56;;;;;;;;;35.00;29.25;;;;;;;;5023361;28;52590;-57
2022/04/30 00:27:22;;;;;;;;;36.00;33.00;;;;;;;;5025037;28;51136;-58
2022/04/30 00:29:47;;;;;;;;;33.50;31.75;;;;;;;;5018961;28;51125;-56
2022/04/30 00:32:12;;;;;;;;;32.50;30.50;;;;;;;;5028493;28;52061;-58
2022/04/30 00:34:37;;;;;;;;;31.25;29.00;;;;;;;;5005066;28;51053;-58
2022/04/30 00:37:03;;;;;;;;;33.25;29.00;;;;;;;;5023673;28;51314;-58
2022/04/30 00:39:29;;;;;;;;;38.50;35.75;;;;;;;;5028122;28;51249;-58
2022/04/30 00:41:55;;;;;;;;;32.50;29.50;;;;;;;;5021728;28;53430;-57
2022/04/30 00:44:20;;;;;;;;;38.00;34.25;;;;;;;;5024552;28;51334;-57
2022/04/30 00:46:46;;;;;;;;;36.50;34.00;;;;;;;;5023653;28;51843;-58
2022/04/30 00:49:12;;;;;;;;;36.25;30.75;;;;;;;;5025849;28;52549;-57
2022/04/30 00:51:39;;;;;;;;;31.75;29.75;;;;;;;;5025711;28;52758;-57
2022/04/30 00:54:04;;;;;;;;;36.00;34.25;;;;;;;;5022740;28;51137;-57
2022/04/30 00:56:32;;;;;;;;;30.75;29.50;;;;;;;;5023677;28;51162;-58
2022/04/30 00:59:00;;;;;;;;;39.00;35.25;;;;;;;;5024588;28;51035;-57
2022/04/30 01:01:26;;;;;;;;;40.00;34.50;;;;;;;;5020611;28;51714;-58
2022/04/30 01:03:52;;;;;;;;;36.50;34.25;;;;;;;;5022487;28;52186;-58
2022/04/30 01:06:21;;;;;;;;;29.50;27.25;;;;;;;;5018426;28;51223;-57
2022/04/30 01:08:48;;;;;;;;;38.50;33.50;;;;;;;;5022038;28;51284;-57
2022/04/30 01:11:13;;;;;;;;;35.75;33.50;;;;;;;;5003996;28;54147;-58
2022/04/30 01:13:38;;;;;;;;;36.50;33.00;;;;;;;;5017426;28;51180;-58
2022/04/30 01:16:05;;;;;;;;;37.50;34.25;;;;;;;;5017985;28;51126;-57
2022/04/30 01:18:33;;;;;;;;;45.75;37.50;;;;;;;;5022238;28;51384;-57
2022/04/30 01:21:06;;;;;;;;;35.75;31.75;;;;;;;;5019710;28;51171;-58
2022/04/30 01:23:32;;;;;;;;;37.25;34.00;;;;;;;;5031606;28;51176;-57
2022/04/30 01:25:58;;;;;;;;;36.00;34.50;;;;;;;;5038279;28;51111;-58
2022/04/30 01:28:24;;;;;;;;;37.50;34.00;;;;;;;;5042633;28;51023;-58
2022/04/30 01:30:49;;;;;;;;;34.75;31.75;;;;;;;;5012501;28;54066;-58
2022/04/30 01:38:56;;;;;;;;;33.75;31.25;;;;;;;;5030193;28;51249;-58
2022/04/30 01:41:22;;;;;;;;;36.75;34.00;;;;;;;;5030289;28;51098;-57
2022/04/30 01:43:47;;;;;;;;;33.50;31.25;;;;;;;;5040267;28;51087;-58
2022/04/30 01:46:12;;;;;;;;;30.75;29.75;;;;;;;;5035716;28;51076;-58
2022/04/30 01:48:38;;;;;;;;;35.75;33.75;;;;;;;;5032797;28;52368;-57
2022/04/30 01:51:03;;;;;;;;;39.25;34.50;;;;;;;;5012906;28;51824;-58
2022/04/30 01:53:30;;;;;;;;;33.50;32.75;;;;;;;;5041651;28;51053;-58
2022/04/30 01:55:56;;;;;;;;;32.50;30.75;;;;;;;;5031711;28;51135;-59
2022/04/30 01:58:21;;;;;;;;;32.25;30.75;;;;;;;;5038678;28;51280;-58
2022/04/30 02:00:46;;;;;;;;;37.50;34.00;;;;;;;;5038894;28;51814;-58
2022/04/30 02:03:15;;;;;;;;;42.25;37.00;;;;;;;;5038440;28;51346;-57
2022/04/30 02:05:41;;;;;;;;;37.50;34.00;;;;;;;;5034474;28;51063;-56
2022/04/30 02:08:07;;;;;;;;;39.00;34.25;;;;;;;;5033521;28;50947;-58
2022/04/30 02:10:38;;;;;;;;;38.25;33.00;;;;;;;;5040220;28;51907;-58
2022/04/30 02:13:06;;;;;;;;;34.75;32.25;;;;;;;;5039510;28;50995;-61
2022/04/30 02:15:32;;;;;;;;;40.25;34.75;;;;;;;;5031077;28;50884;-57
2022/04/30 02:17:58;;;;;;;;;31.50;29.25;;;;;;;;5035323;28;51485;-60
2022/04/30 02:20:25;;;;;;;;;36.50;35.00;;;;;;;;5037163;28;51193;-57
2022/04/30 02:22:54;;;;;;;;;40.50;34.75;;;;;;;;5040709;28;51055;-57
2022/04/30 02:25:20;;;;;;;;;32.50;30.25;;;;;;;;5031374;28;51228;-58
2022/04/30 02:27:49;;;;;;;;;36.50;33.25;;;;;;;;5032004;28;50893;-58
2022/04/30 02:30:17;;;;;;;;;35.75;32.75;;;;;;;;5011007;28;53282;-58
2022/04/30 02:32:44;;;;;;;;;37.50;34.00;;;;;;;;5042567;28;51418;-58
2022/04/30 02:35:10;;;;;;;;;32.25;30.00;;;;;;;;5033009;28;52607;-58
2022/04/30 02:37:36;;;;;;;;;34.25;31.50;;;;;;;;5029735;28;51857;-58
2022/04/30 02:40:02;;;;;;;;;38.00;31.00;;;;;;;;5038015;28;51149;-59
2022/04/30 02:42:27;;;;;;;;;39.00;33.75;;;;;;;;5034141;28;51030;-58
2022/04/30 02:44:53;;;;;;;;;33.75;28.50;;;;;;;;5036862;28;51158;-58
2022/04/30 02:47:18;;;;;;;;;36.50;32.25;;;;;;;;5044937;28;51092;-58
2022/04/30 02:49:44;;;;;;;;;31.50;26.00;;;;;;;;5028663;28;52756;-57
2022/04/30 02:52:09;;;;;;;;;31.75;31.25;;;;;;;;5028506;28;51126;-57
2022/04/30 02:54:34;;;;;;;;;41.00;35.00;;;;;;;;5036506;28;50953;-59
2022/04/30 02:57:00;;;;;;;;;33.00;29.50;;;;;;;;5036764;28;51023;-59
2022/04/30 03:02:09;;;;;;;;;37.00;33.50;;;;;;;;5029237;28;51320;-57
2022/04/30 03:04:34;;;;;;;;;35.50;30.25;;;;;;;;5034989;28;51211;-57
2022/04/30 03:06:59;;;;;;;;;35.25;34.25;;;;;;;;5034298;28;50910;-57
2022/04/30 03:09:25;;;;;;;;;33.50;31.75;;;;;;;;5032298;28;51058;-58
2022/04/30 03:11:50;;;;;;;;;36.00;33.25;;;;;;;;5034288;28;51106;-59
2022/04/30 03:14:15;;;;;;;;;33.25;30.50;;;;;;;;5031928;28;52810;-58
2022/04/30 03:22:09;;;;;;;;;37.25;31.75;;;;;;;;5032467;28;51105;-58
2022/04/30 03:24:34;;;;;;;;;34.00;32.00;;;;;;;;5034703;28;51213;-57
2022/04/30 03:26:59;;;;;;;;;28.75;28.25;;;;;;;;5040506;28;52657;-57
2022/04/30 03:29:25;;;;;;;;;34.75;32.50;;;;;;;;5037446;28;51681;-57
2022/04/30 03:31:50;;;;;;;;;39.00;31.75;;;;;;;;5014078;28;50964;-57
2022/04/30 03:34:15;;;;;;;;;35.25;32.00;;;;;;;;5039298;28;51093;-57
2022/04/30 03:36:41;;;;;;;;;30.50;28.75;;;;;;;;5032333;28;51284;-57
2022/04/30 03:39:06;;;;;;;;;37.75;34.75;;;;;;;;5035242;28;51658;-57
2022/04/30 03:41:32;;;;;;;;;39.50;34.00;;;;;;;;5030711;28;51395;-57
2022/04/30 03:43:57;;;;;;;;;39.25;35.00;;;;;;;;5042198;28;51028;-57
2022/04/30 03:46:23;;;;;;;;;30.00;28.00;;;;;;;;5032961;28;51338;-57
2022/04/30 03:48:53;;;;;;;;;40.25;34.00;;;;;;;;5033474;28;51206;-56
2022/04/30 03:51:18;;;;;;;;;33.25;31.25;;;;;;;;5040731;28;50999;-57
2022/04/30 03:53:43;;;;;;;;;37.75;33.50;;;;;;;;5051269;28;51089;-58
2022/04/30 03:56:09;;;;;;;;;37.25;32.50;;;;;;;;5031564;28;51422;-58
2022/04/30 03:58:34;;;;;;;;;39.50;35.00;;;;;;;;5041933;28;52802;-57
2022/04/30 04:00:59;;;;;;;;;33.75;31.50;;;;;;;;5039122;28;50848;-57
2022/04/30 04:03:25;;;;;;;;;30.75;28.25;;;;;;;;5037689;28;51320;-57
2022/04/30 04:05:50;;;;;;;;;38.25;32.00;;;;;;;;5049053;28;51169;-57
2022/04/30 04:08:16;;;;;;;;;36.50;32.75;;;;;;;;5049085;28;52433;-56
2022/04/30 04:10:41;;;;;;;;;35.25;31.75;;;;;;;;5045289;28;51047;-57
2022/04/30 04:18:35;;;;;;;;;38.25;35.00;;;;;;;;5049696;28;51407;-57
2022/04/30 04:21:00;;;;;;;;;39.00;34.25;;;;;;;;5045630;28;51117;-57
2022/04/30 04:23:26;;;;;;;;;35.75;34.00;;;;;;;;5045261;28;51199;-58
2022/04/30 04:26:00;;;;;;;;;38.25;35.75;;;;;;;;5040473;28;51318;-58
2022/04/30 04:28:28;;;;;;;;;31.25;29.50;;;;;;;;5044676;28;51774;-57
2022/04/30 04:30:54;;;;;;;;;39.00;34.50;;;;;;;;5047620;28;51138;-58
2022/04/30 04:33:19;;;;;;;;;34.25;34.00;;;;;;;;5046905;28;51101;-58
2022/04/30 04:35:44;;;;;;;;;38.00;34.50;;;;;;;;5037366;28;51181;-58
2022/04/30 04:38:10;;;;;;;;;39.50;36.50;;;;;;;;5048639;28;50994;-58
2022/04/30 04:40:35;;;;;;;;;36.00;34.00;;;;;;;;5043093;28;51089;-58
2022/04/30 04:43:00;;;;;;;;;39.00;33.00;;;;;;;;5048063;28;50977;-57
2022/04/30 04:45:27;;;;;;;;;35.25;32.50;;;;;;;;5054875;28;50954;-56
2022/04/30 04:47:52;;;;;;;;;33.25;31.75;;;;;;;;5031145;28;52494;-58
2022/04/30 04:50:18;;;;;;;;;40.50;36.25;;;;;;;;5043353;28;51061;-58
2022/04/30 04:52:43;;;;;;;;;39.25;35.75;;;;;;;;5033767;28;51212;-57
2022/04/30 04:55:09;;;;;;;;;43.75;37.25;;;;;;;;5045968;28;50899;-58
2022/04/30 04:57:34;;;;;;;;;36.50;32.75;;;;;;;;5032889;28;52652;-58
2022/04/30 04:59:59;;;;;;;;;38.00;34.00;;;;;;;;5026555;28;51036;-58
2022/04/30 05:02:25;;;;;;;;;40.75;35.00;;;;;;;;5038499;28;50994;-58
2022/04/30 05:04:50;;;;;;;;;37.75;35.25;;;;;;;;5037567;28;51452;-57
2022/04/30 05:07:16;;;;;;;;;37.50;34.00;;;;;;;;5033119;28;52385;-59
2022/04/30 05:09:41;;;;;;;;;40.75;36.50;;;;;;;;5034992;28;51040;-57
2022/04/30 05:12:07;;;;;;;;;48.25;38.25;;;;;;;;5046882;28;51091;-58
2022/04/30 05:14:33;;;;;;;;;43.25;36.75;;;;;;;;5039753;28;51163;-59
2022/04/30 05:16:58;;;;;;;;;44.00;37.00;;;;;;;;5044571;28;52213;-58
2022/04/30 05:19:23;;;;;;;;;43.00;37.50;;;;;;;;5029087;28;51248;-57
2022/04/30 05:21:49;;;;;;;;;28.25;27.00;;;;;;;;5031308;28;51051;-58
2022/04/30 05:24:14;;;;;;;;;45.75;37.00;;;;;;;;5045248;28;51071;-59
2022/04/30 05:26:39;;;;;;;;;40.25;35.75;;;;;;;;5026070;28;51734;-58
2022/04/30 05:29:04;;;;;;;;;37.00;34.25;;;;;;;;5039531;28;52579;-56
2022/04/30 05:31:29;;;;;;;;;41.50;37.00;;;;;;;;5040949;28;51086;-58
2022/04/30 05:33:55;;;;;;;;;44.50;37.00;;;;;;;;5050195;28;51049;-58
2022/04/30 05:36:20;;;;;;;;;44.25;38.00;;;;;;;;5047400;28;51230;-58
2022/04/30 05:38:47;;;;;;;;;42.25;36.25;;;;;;;;5037102;28;50991;-57
2022/04/30 05:41:12;;;;;;;;;44.50;36.25;;;;;;;;5043804;28;51055;-58
2022/04/30 05:43:37;;;;;;;;;40.75;36.75;;;;;;;;5048916;28;51325;-58
2022/04/30 05:46:02;;;;;;;;;40.00;34.50;;;;;;;;5045035;28;52038;-58
2022/04/30 05:48:28;;;;;;;;;36.50;33.75;;;;;;;;5047434;28;50985;-57
2022/04/30 05:50:54;;;;;;;;;39.25;35.50;;;;;;;;5045927;28;51219;-59
2022/04/30 05:53:20;;;;;;;;;37.25;32.50;;;;;;;;5031902;28;51323;-58
2022/04/30 05:55:45;;;;;;;;;44.25;35.00;;;;;;;;5040821;28;51151;-58
2022/04/30 05:58:10;;;;;;;;;45.50;36.75;;;;;;;;5031274;28;51052;-58
2022/04/30 06:00:35;;;;;;;;;42.25;35.75;;;;;;;;5050005;28;50892;-58
2022/04/30 06:03:01;;;;;;;;;39.00;34.25;;;;;;;;5039089;28;51336;-58
2022/04/30 06:05:26;;;;;;;;;39.25;33.25;;;;;;;;5037710;28;52006;-58
2022/04/30 06:07:52;;;;;;;;;38.75;34.25;;;;;;;;5015698;28;51019;-58
2022/04/30 06:10:17;;;;;;;;;37.50;33.50;;;;;;;;5033797;28;51315;-58
2022/04/30 06:12:42;;;;;;;;;36.00;34.00;;;;;;;;5043106;28;51184;-58
2022/04/30 06:15:08;;;;;;;;;34.25;32.00;;;;;;;;5052545;28;52927;-58
2022/04/30 06:17:33;;;;;;;;;39.50;34.75;;;;;;;;5023204;28;51382;-58
2022/04/30 06:19:59;;;;;;;;;37.50;32.50;;;;;;;;5032714;28;50942;-55
2022/04/30 06:22:24;;;;;;;;;40.75;34.00;;;;;;;;5027462;28;52042;-58
2022/04/30 06:24:49;;;;;;;;;37.25;33.00;;;;;;;;5034095;28;52822;-58
2022/04/30 06:27:14;;;;;;;;;35.75;33.00;;;;;;;;5027158;28;51236;-58
2022/04/30 06:29:39;;;;;;;;;34.75;31.50;;;;;;;;5020668;28;50975;-57
2022/04/30 06:32:05;;;;;;;;;37.25;32.50;;;;;;;;5043429;28;51061;-58
2022/04/30 06:34:30;;;;;;;;;39.75;34.25;;;;;;;;5033423;28;53721;-57
2022/04/30 06:36:55;;;;;;;;;37.25;33.50;;;;;;;;5029875;28;50997;-57
2022/04/30 06:39:21;;;;;;;;;42.25;37.50;;;;;;;;5036705;28;50989;-58
2022/04/30 06:41:46;;;;;;;;;37.50;33.25;;;;;;;;5013120;28;51359;-57
2022/04/30 06:44:11;;;;;;;;;40.00;34.00;;;;;;;;5035367;28;51725;-57
2022/04/30 06:46:37;;;;;;;;;39.75;34.75;;;;;;;;5034496;28;51163;-57
2022/04/30 06:49:02;;;;;;;;;39.25;34.25;;;;;;;;5015582;28;50940;-57
2022/04/30 06:51:27;;;;;;;;;34.00;32.75;;;;;;;;5032541;28;51178;-58
2022/04/30 06:59:22;;;;;;;;;35.00;31.50;;;;;;;;5022748;28;51108;-58
2022/04/30 07:02:00;;;;;;;;;35.00;30.25;;;;;;;;5030158;28;51269;-58
2022/04/30 07:04:25;;;;;;;;;35.00;32.50;;;;;;;;5040341;28;51806;-58
2022/04/30 07:06:51;;;;;;;;;35.25;31.25;;;;;;;;5040758;28;51192;-57
2022/04/30 07:09:16;;;;;;;;;37.00;31.75;;;;;;;;5057507;28;51000;-57
2022/04/30 07:11:42;;;;;;;;;31.50;29.00;;;;;;;;5043920;28;51255;-57
2022/04/30 07:14:07;;;;;;;;;35.25;31.25;;;;;;;;5055840;28;51056;-58
2022/04/30 07:16:32;;;;;;;;;31.75;30.50;;;;;;;;5040278;28;51127;-58
2022/04/30 07:18:58;;;;;;;;;31.25;28.25;;;;;;;;5053774;28;50929;-58
2022/04/30 07:21:24;;;;;;;;;32.75;28.00;;;;;;;;5029896;28;51418;-57
2022/04/30 07:23:50;;;;;;;;;30.50;29.75;;;;;;;;5016766;28;51661;-57
2022/04/30 07:26:16;;;;;;;;;30.50;28.50;;;;;;;;5027989;28;51166;-57
2022/04/30 07:28:41;;;;;;;;;31.50;29.75;;;;;;;;5033358;28;50955;-57
2022/04/30 07:31:08;;;;;;;;;27.00;25.75;;;;;;;;5028908;28;52750;-57
2022/04/30 07:33:33;;;;;;;;;31.50;30.75;;;;;;;;5012389;28;53096;-58
2022/04/30 07:35:58;;;;;;;;;28.75;27.75;;;;;;;;5031689;28;51196;-57
2022/04/30 07:38:24;;;;;;;;;31.50;29.50;;;;;;;;5029892;28;51012;-58
2022/04/30 07:40:49;;;;;;;;;29.50;28.25;;;;;;;;5031255;28;51138;-58
2022/04/30 07:43:14;;;;;;;;;27.75;26.75;;;;;;;;5028599;28;51818;-58
2022/04/30 07:45:39;;;;;;;;;22.50;22.50;;;;;;;;5031833;28;51207;-58
2022/04/30 07:48:05;;;;;;;;;30.75;26.50;;;;;;;;5030627;28;51077;-58
2022/04/30 07:50:36;;;;;;;;;29.50;26.25;;;;;;;;5013506;28;51113;-58
2022/04/30 07:53:05;;;;;;;;;28.50;27.25;;;;;;;;5029776;28;51200;-58
2022/04/30 07:55:30;;;;;;;;;26.50;26.50;;;;;;;;5031947;28;50908;-59
2022/04/30 07:57:57;;;;;;;;;26.50;26.50;;;;;;;;5032312;28;51335;-59
2022/04/30 08:00:22;;;;;;;;;20.50;18.75;;;;;;;;5030901;28;51392;-58
2022/04/30 08:02:48;;;;;;;;;31.00;29.00;;;;;;;;5030450;28;51818;-58
2022/04/30 08:05:13;;;;;;;;;26.25;25.75;;;;;;;;5033016;28;51037;-59
2022/04/30 08:07:38;;;;;;;;;26.75;23.50;;;;;;;;5029208;28;51181;-58
2022/04/30 08:10:04;;;;;;;;;28.75;26.25;;;;;;;;5029286;28;51109;-57
2022/04/30 08:12:29;;;;;;;;;27.00;26.00;;;;;;;;5033398;28;51346;-58
2022/04/30 08:14:54;;;;;;;;;25.00;24.00;;;;;;;;5020077;28;51075;-57
2022/04/30 08:17:20;;;;;;;;;25.50;23.50;;;;;;;;5027893;28;51307;-57
2022/04/30 08:19:45;;;;;;;;;23.75;23.25;;;;;;;;5032393;28;51261;-58
2022/04/30 08:22:10;;;;;;;;;23.00;23.00;;;;;;;;5025057;28;51733;-57
2022/04/30 08:24:36;;;;;;;;;25.00;24.00;;;;;;;;5026481;28;51093;-59
2022/04/30 08:27:01;;;;;;;;;26.00;25.00;;;;;;;;5019795;28;51122;-58
2022/04/30 08:29:28;;;;;;;;;26.00;25.00;;;;;;;;5045681;28;51171;-58
2022/04/30 08:31:53;;;;;;;;;26.25;24.25;;;;;;;;5053498;28;51688;-63
2022/04/30 08:34:18;;;;;;;;;25.00;25.00;;;;;;;;5053961;28;50952;-58
2022/04/30 08:36:45;;;;;;;;;23.50;21.50;;;;;;;;5054321;28;51260;-58
2022/04/30 08:39:10;;;;;;;;;23.00;20.50;;;;;;;;5040310;28;51127;-59
2022/04/30 08:41:35;;;;;;;;;26.00;25.25;;;;;;;;5053232;28;51066;-59
2022/04/30 08:44:01;;;;;;;;;21.50;21.00;;;;;;;;5054220;28;51364;-61
2022/04/30 08:46:26;;;;;;;;;24.75;24.75;;;;;;;;5053602;28;51058;-59
2022/04/30 08:48:51;;;;;;;;;27.00;26.50;;;;;;;;5028081;28;51183;-58
2022/04/30 08:51:17;;;;;;;;;26.50;25.75;;;;;;;;5028585;28;51698;-58
2022/04/30 08:53:42;;;;;;;;;23.00;22.75;;;;;;;;5032020;28;51304;-58
2022/04/30 08:56:08;;;;;;;;;24.50;23.50;;;;;;;;5021986;28;51210;-59
2022/04/30 08:58:33;;;;;;;;;26.00;23.75;;;;;;;;5033489;28;51032;-58
2022/04/30 09:01:01;;;;;;;;;26.33;25.33;;;;;;;;5027867;28;51372;-58
2022/04/30 09:03:26;;;;;;;;;21.00;20.67;;;;;;;;5039141;28;51100;-59
2022/04/30 09:05:51;;;;;;;;;24.67;23.67;;;;;;;;5041603;28;51106;-59
2022/04/30 09:08:17;;;;;;;;;24.33;23.67;;;;;;;;5037388;28;51336;-59
2022/04/30 09:10:42;;;;;;;;;27.00;26.00;;;;;;;;5033592;28;51675;-58
2022/04/30 09:13:10;;;;;;;;;26.33;25.33;;;;;;;;5046928;28;50941;-60
2022/04/30 09:15:36;;;;;;;;;23.50;23.50;;;;;;;;5052385;28;51166;-58
2022/04/30 09:18:02;;;;;;;;;19.50;18.75;;;;;;;;5039640;28;51276;-58
2022/04/30 09:20:30;;;;;;;;;25.33;24.00;;;;;;;;5053180;28;52321;-57
2022/04/30 09:22:56;;;;;;;;;23.67;22.67;;;;;;;;5053088;28;51016;-58
2022/04/30 09:25:22;;;;;;;;;25.00;23.00;;;;;;;;5053430;28;50993;-57
2022/04/30 09:27:51;;;;;;;;;25.00;22.00;;;;;;;;5046210;28;51293;-58
2022/04/30 09:30:17;;;;;;;;;17.00;17.00;;;;;;;;5027822;28;52165;-58
2022/04/30 09:32:43;;;;;;;;;17.67;17.33;;;;;;;;5052322;28;51051;-59
2022/04/30 09:38:04;;;;;;;;;17.00;16.00;;;;;;;;5041977;28;51117;-58
2022/04/30 09:40:30;;;;;;;;;17.67;16.67;;;;;;;;5032122;28;51791;-58
2022/04/30 09:42:56;;;;;;;;;20.33;18.00;;;;;;;;5032317;28;51149;-59
2022/04/30 09:45:29;;;;;;;;;14.67;14.00;;;;;;;;5031180;28;51070;-58
2022/04/30 09:47:55;;;;;;;;;17.00;16.33;;;;;;;;5031951;28;51342;-58
2022/04/30 09:55:54;;;;;;;;;13.33;12.67;;;;;;;;5050017;28;51123;-58
2022/04/30 09:58:24;;;;;;;;;16.67;16.00;;;;;;;;5052795;28;50939;-58
2022/04/30 10:00:51;;;;;;;;;14.00;13.33;;;;;;;;5049997;28;50981;-58
2022/04/30 10:03:16;;;;;;;;;21.00;19.67;;;;;;;;5031636;28;51155;-59
2022/04/30 10:05:42;;;;;;;;;17.67;16.67;;;;;;;;5032045;28;50960;-59
2022/04/30 10:08:08;;;;;;;;;17.00;17.00;;;;;;;;5032226;28;50956;-58
2022/04/30 10:10:38;;;;;;;;;17.67;17.67;;;;;;;;5031989;28;53092;-59
2022/04/30 10:13:03;;;;;;;;;15.33;15.00;;;;;;;;5031823;28;50980;-58
2022/04/30 10:15:37;;;;;;;;;15.00;14.33;;;;;;;;5032025;28;51059;-58
2022/04/30 10:18:05;;;;;;;;;14.33;13.33;;;;;;;;5038281;28;51261;-59
2022/04/30 10:20:34;;;;;;;;;15.00;14.00;;;;;;;;5027070;28;51750;-58
2022/04/30 10:23:00;;;;;;;;;14.00;14.00;;;;;;;;5051803;28;50889;-59
2022/04/30 10:25:32;;;;;;;;;14.00;14.00;;;;;;;;5033659;28;51047;-59
2022/04/30 10:27:57;;;;;;;;;15.33;15.00;;;;;;;;5051710;28;51149;-58
2022/04/30 10:30:29;;;;;;;;;13.33;13.33;;;;;;;;5033412;28;51910;-59
2022/04/30 10:32:56;;;;;;;;;16.33;15.00;;;;;;;;5051435;28;51228;-58
2022/04/30 10:35:32;;;;;;;;;12.67;12.33;;;;;;;;5051846;28;50864;-59
2022/04/30 10:38:17;;;;;;;;;14.67;14.00;;;;;;;;5024977;28;51509;-60
2022/04/30 10:40:42;;;;;;;;;13.00;12.00;;;;;;;;5023207;28;53142;-59
2022/04/30 10:43:14;;;;;;;;;15.00;14.67;;;;;;;;5028235;28;50884;-59
2022/04/30 10:45:39;;;;;;;;;12.33;12.00;;;;;;;;5028818;28;51221;-58
2022/04/30 10:48:05;;;;;;;;;17.00;15.33;;;;;;;;5031906;28;51073;-58
2022/04/30 10:50:30;;;;;;;;;14.00;14.00;;;;;;;;5027555;28;51440;-59
2022/04/30 10:52:56;;;;;;;;;13.33;13.33;;;;;;;;5030423;28;51496;-58
2022/04/30 10:55:22;;;;;;;;;15.00;14.67;;;;;;;;5050981;28;51211;-60
2022/04/30 10:57:47;;;;;;;;;14.00;13.33;;;;;;;;5037694;28;51009;-59
2022/04/30 11:00:13;;;;;;;;;13.00;13.00;;;;;;;;5011137;28;51338;-57
2022/04/30 11:02:39;;;;;;;;;14.00;12.67;;;;;;;;5035393;28;50925;-58
2022/04/30 11:05:05;;;;;;;;;11.33;11.33;;;;;;;;5031290;28;51092;-58
2022/04/30 11:07:31;;;;;;;;;13.00;12.33;;;;;;;;5029105;28;50880;-59
2022/04/30 11:09:56;;;;;;;;;15.67;14.33;;;;;;;;5051110;28;51727;-59
2022/04/30 11:12:26;;;;;;;;;12.33;12.00;;;;;;;;5051296;28;51122;-58
2022/04/30 11:14:54;;;;;;;;;15.00;14.00;;;;;;;;5049387;28;51221;-59
2022/04/30 11:17:19;;;;;;;;;11.67;11.00;;;;;;;;5051730;28;51044;-58
2022/04/30 11:19:44;;;;;;;;;17.67;16.33;;;;;;;;5045909;28;51759;-59
2022/04/30 11:22:10;;;;;;;;;14.00;11.33;;;;;;;;5030408;28;50841;-58
2022/04/30 11:24:39;;;;;;;;;12.33;11.33;;;;;;;;5018155;28;50922;-59
2022/04/30 11:27:05;;;;;;;;;10.33;10.33;;;;;;;;5038397;28;51090;-58
2022/04/30 11:29:31;;;;;;;;;11.00;10.67;;;;;;;;5031775;28;53246;-59
2022/04/30 11:31:57;;;;;;;;;11.00;10.67;;;;;;;;5031273;28;51058;-59
2022/04/30 11:34:23;;;;;;;;;8.00;7.67;;;;;;;;5040441;28;51071;-58
2022/04/30 11:36:49;;;;;;;;;12.00;11.33;;;;;;;;5009587;28;51217;-60
2022/04/30 11:39:15;;;;;;;;;9.00;9.00;;;;;;;;5028451;28;52532;-59
2022/04/30 11:41:41;;;;;;;;;8.00;8.00;;;;;;;;5008095;28;51374;-60
2022/04/30 11:44:08;;;;;;;;;9.00;9.00;;;;;;;;5033222;28;51099;-60
2022/04/30 11:46:35;;;;;;;;;8.00;8.00;;;;;;;;5031090;28;51024;-59
2022/04/30 11:49:06;;;;;;;;;10.67;10.00;;;;;;;;5032829;28;51185;-59
2022/04/30 11:51:31;;;;;;;;;10.33;9.67;;;;;;;;5033244;28;51055;-60
2022/04/30 11:53:56;;;;;;;;;8.33;8.00;;;;;;;;5034490;28;51009;-59
2022/04/30 11:56:22;;;;;;;;;10.67;9.33;;;;;;;;5030783;28;51071;-60
2022/04/30 11:58:47;;;;;;;;;9.00;8.00;;;;;;;;5014257;28;51181;-60
2022/04/30 12:01:22;;;;;;;;;8.00;8.00;;;;;;;;5033209;28;51177;-60
2022/04/30 12:03:52;;;;;;;;;7.33;6.00;;;;;;;;5014195;28;51077;-59
2022/04/30 12:06:18;;;;;;;;;7.33;7.00;;;;;;;;4991980;28;51395;-59
2022/04/30 12:08:44;;;;;;;;;8.67;8.00;;;;;;;;5013632;28;51148;-59
2022/04/30 12:11:09;;;;;;;;;6.67;6.67;;;;;;;;5012607;28;51767;-59
2022/04/30 12:13:34;;;;;;;;;13.50;13.00;;;;;;;;5011780;28;51075;-59
2022/04/30 12:16:06;;;;;;;;;6.00;5.67;;;;;;;;5010510;28;51232;-59
2022/04/30 12:26:55;;;;;;;;;8.67;8.00;;;;;;;;5013798;28;51162;-60
2022/04/30 12:29:22;;;;;;;;;3.33;3.33;;;;;;;;5004966;28;51216;-58
2022/04/30 12:31:48;;;;;;;;;5.00;4.67;;;;;;;;5007372;28;51009;-59
2022/04/30 12:34:40;;;;;;;;;5.33;5.00;;;;;;;;5012354;28;51111;-59
2022/04/30 12:37:06;;;;;;;;;9.00;7.00;;;;;;;;5025533;28;51131;-58
2022/04/30 12:39:31;;;;;;;;;8.00;6.33;;;;;;;;5012977;28;52259;-59
2022/04/30 12:41:59;;;;;;;;;7.33;6.00;;;;;;;;5030648;28;50952;-58
2022/04/30 12:44:25;;;;;;;;;7.33;6.00;;;;;;;;5013556;28;51141;-59
2022/04/30 12:46:50;;;;;;;;;5.67;5.00;;;;;;;;5014768;28;50911;-59
2022/04/30 12:49:17;;;;;;;;;9.00;8.33;;;;;;;;5033408;28;50863;-59
2022/04/30 12:51:43;;;;;;;;;6.33;5.67;;;;;;;;5033254;28;51032;-59
2022/04/30 12:54:12;;;;;;;;;6.00;5.67;;;;;;;;5033679;28;50984;-59
2022/04/30 12:56:37;;;;;;;;;5.00;5.00;;;;;;;;5018526;28;50868;-59
2022/04/30 12:59:03;;;;;;;;;6.67;6.00;;;;;;;;5014570;28;53990;-59
2022/04/30 13:01:28;;;;;;;;;6.00;6.00;;;;;;;;5016949;28;51179;-59
2022/04/30 13:03:54;;;;;;;;;6.00;6.00;;;;;;;;5015000;28;50845;-60
2022/04/30 13:06:19;;;;;;;;;6.67;6.67;;;;;;;;5051522;28;50859;-59
2022/04/30 13:14:14;;;;;;;;;4.00;4.00;;;;;;;;5029880;28;51077;-58
2022/04/30 13:16:39;;;;;;;;;5.67;5.67;;;;;;;;5027891;28;51266;-59
2022/04/30 13:19:05;;;;;;;;;8.00;7.67;;;;;;;;5053771;28;51715;-60
2022/04/30 13:21:30;;;;;;;;;6.67;5.67;;;;;;;;5052748;28;50959;-58
2022/04/30 13:23:55;;;;;;;;;6.67;6.67;;;;;;;;5052855;28;51561;-60
2022/04/30 13:26:21;;;;;;;;;6.00;6.00;;;;;;;;5052433;28;51232;-60
2022/04/30 13:28:46;;;;;;;;;8.00;7.67;;;;;;;;5041208;28;51533;-58
2022/04/30 13:31:12;;;;;;;;;7.33;6.33;;;;;;;;5048331;28;51145;-59
2022/04/30 13:33:38;;;;;;;;;5.67;5.67;;;;;;;;5041320;28;50955;-59
2022/04/30 13:36:03;;;;;;;;;4.67;4.67;;;;;;;;5052291;28;51322;-58
2022/04/30 13:38:29;;;;;;;;;6.00;6.00;;;;;;;;5052195;28;51245;-59
2022/04/30 13:40:54;;;;;;;;;8.67;8.00;;;;;;;;5052471;28;51138;-59
2022/04/30 13:43:20;;;;;;;;;4.33;4.33;;;;;;;;5052093;28;50980;-62
2022/04/30 13:45:46;;;;;;;;;7.00;7.00;;;;;;;;5042245;28;51339;-58
2022/04/30 13:48:11;;;;;;;;;5.00;5.00;;;;;;;;5042926;28;50933;-59
2022/04/30 13:50:36;;;;;;;;;5.67;5.33;;;;;;;;5051836;28;51027;-60
2022/04/30 13:53:02;;;;;;;;;6.00;5.33;;;;;;;;5052211;28;50980;-59
2022/04/30 13:55:27;;;;;;;;;9.33;8.67;;;;;;;;5051113;28;51278;-59
2022/04/30 13:57:53;;;;;;;;;7.67;7.67;;;;;;;;5046590;28;50977;-60
2022/04/30 14:00:21;;;;;;;;;6.33;5.67;;;;;;;;5050226;28;50847;-60
2022/04/30 14:02:46;;;;;;;;;7.33;6.67;;;;;;;;5031717;28;51121;-59
2022/04/30 14:05:12;;;;;;;;;6.00;5.67;;;;;;;;5036986;28;51388;-59
2022/04/30 14:07:37;;;;;;;;;5.00;5.00;;;;;;;;5051393;28;52085;-58
2022/04/30 14:10:03;;;;;;;;;7.67;6.67;;;;;;;;5042713;28;51028;-60
2022/04/30 14:12:28;;;;;;;;;5.33;5.00;;;;;;;;5017603;28;51207;-59
2022/04/30 14:14:57;;;;;;;;;5.00;5.00;;;;;;;;5022806;28;51810;-59
2022/04/30 14:20:10;;;;;;;;;6.67;6.00;;;;;;;;5036816;28;51026;-59
2022/04/30 14:22:35;;;;;;;;;8.33;7.00;;;;;;;;5037715;28;51144;-59
2022/04/30 14:25:00;;;;;;;;;4.67;4.67;;;;;;;;5033585;28;52104;-60
2022/04/30 14:27:26;;;;;;;;;6.33;6.33;;;;;;;;5039140;28;51095;-58
2022/04/30 14:29:51;;;;;;;;;8.00;8.00;;;;;;;;5036600;28;51113;-59
2022/04/30 14:32:20;;;;;;;;;7.33;6.33;;;;;;;;5035249;28;51073;-59
2022/04/30 14:34:46;;;;;;;;;4.67;4.67;;;;;;;;5038757;28;51036;-59
2022/04/30 14:37:11;;;;;;;;;10.33;10.33;;;;;;;;5040083;28;51974;-58
2022/04/30 14:39:36;;;;;;;;;8.00;7.33;;;;;;;;5040716;28;51008;-58
2022/04/30 14:42:02;;;;;;;;;7.67;7.67;;;;;;;;5025291;28;51155;-60
2022/04/30 14:44:28;;;;;;;;;8.67;8.67;;;;;;;;5041096;28;50849;-60
2022/04/30 14:46:54;;;;;;;;;8.67;8.67;;;;;;;;5032255;28;51459;-59
2022/04/30 14:49:19;;;;;;;;;10.00;10.00;;;;;;;;5051783;28;50882;-58
2022/04/30 14:51:45;;;;;;;;;8.33;8.33;;;;;;;;5043293;28;50993;-58
2022/04/30 14:54:10;;;;;;;;;8.33;7.33;;;;;;;;5021584;28;51328;-59
2022/04/30 14:56:36;;;;;;;;;8.00;7.67;;;;;;;;5025790;28;52214;-58
2022/04/30 14:59:03;;;;;;;;;5.67;5.67;;;;;;;;5010290;28;51283;-58
2022/04/30 15:01:28;;;;;;;;;9.00;8.00;;;;;;;;5030351;28;51129;-58
2022/04/30 15:03:53;;;;;;;;;8.00;8.00;;;;;;;;5041739;28;51119;-59
2022/04/30 15:06:19;;;;;;;;;6.67;6.67;;;;;;;;5015350;28;51978;-59